This is the latest recevied weather packets stored in our database for station/object KD4EED. If no packets are shown the sender has not sent any weather packets the latest 10 day(s).
| Time | Temp. | Humidity | Pressure | Rain* | Wind** | Luminosity | Snow |
|---|---|---|---|---|---|---|---|
| 1777937944 | 19.44° C | 62% | 1012.2 hPa | - | - | 201 W/m² | - |
| 1777937639 | 19.44° C | 61% | 1012.1 hPa | - | - | 264 W/m² | - |
| 1777937336 | 19.44° C | 62% | 1012.1 hPa | - | - | 246 W/m² | - |
| 1777937034 | 19.44° C | 59% | 1012.1 hPa | - | - | 197 W/m² | - |
| 1777936730 | 20° C | 59% | 1012.1 hPa | - | - | 377 W/m² | - |
| 1777936427 | 20.56° C | 59% | 1012.2 hPa | - | - | 292 W/m² | - |
| 1777936123 | 21.11° C | 59% | 1012.3 hPa | - | - | 449 W/m² | - |
| 1777935821 | 21.11° C | 56% | 1012.2 hPa | - | - | 657 W/m² | - |
| 1777935519 | 20.56° C | 56% | 1012.5 hPa | - | - | 617 W/m² | - |
| 1777935215 | 21.11° C | 56% | 1012.5 hPa | - | - | 497 W/m² | - |
| 1777934913 | 21.11° C | 57% | 1012.4 hPa | - | - | 718 W/m² | - |
| 1777934610 | 20.56° C | 58% | 1012.5 hPa | - | - | 762 W/m² | - |
| 1777934306 | 21.11° C | 55% | 1012.3 hPa | - | - | 493 W/m² | - |
| 1777934002 | 21.67° C | 57% | 1012.7 hPa | - | - | 720 W/m² | - |
| 1777933699 | 21.67° C | 57% | 1012.6 hPa | - | - | 786 W/m² | - |
| 1777933396 | 21.67° C | 57% | 1012.5 hPa | - | - | 545 W/m² | - |
| 1777933094 | 21.67° C | 57% | 1012.6 hPa | - | - | 904 W/m² | - |
| 1777932790 | 21.67° C | 57% | 1012.8 hPa | - | - | 294 W/m² | - |
| 1777932487 | 21.11° C | 57% | 1012.7 hPa | - | - | 840 W/m² | - |
| 1777932184 | 21.11° C | 58% | 1013 hPa | - | - | 322 W/m² | - |
| 1777931882 | 20.56° C | 57% | 1012.9 hPa | - | - | 750 W/m² | - |
| 1777931578 | 20.56° C | 59% | 1013.3 hPa | - | - | 434 W/m² | - |
| 1777931274 | 20.56° C | 57% | 1013.3 hPa | - | - | 473 W/m² | - |
| 1777930970 | 21.11° C | 57% | 1013.4 hPa | - | - | 302 W/m² | - |
| 1777930667 | 21.11° C | 56% | 1013.1 hPa | - | - | 524 W/m² | - |
* Rain since midnight (hover to see other rain measurements)
** Current wind speed in m/s (hover to see current wind gust speed)